createdAt,value
2023-01-10T00:00:17.020Z,99042.78
2023-01-10T00:01:19.915Z,99047.19
2023-01-10T00:02:22.495Z,99042.44
2023-01-10T00:03:24.957Z,99048.06
2023-01-10T00:04:32.077Z,99052.38
2023-01-10T00:05:38.594Z,99054.88
2023-01-10T00:06:40.948Z,99053.16
2023-01-10T00:07:44.552Z,99041.41
2023-01-10T00:08:47.432Z,99053.50
2023-01-10T00:09:49.976Z,99058.69
2023-01-10T00:10:52.424Z,99060.56
2023-01-10T00:12:15.495Z,99052.34
2023-01-10T00:13:24.750Z,99061.16
2023-01-10T00:14:30.549Z,99058.09
2023-01-10T00:15:33.828Z,99067.00
2023-01-10T00:16:40.203Z,99067.19
2023-01-10T00:17:45.933Z,99061.88
2023-01-10T00:18:48.890Z,99072.69
2023-01-10T00:19:51.565Z,99070.94
2023-01-10T00:20:57.923Z,99071.44
2023-01-10T00:22:07.356Z,99067.28
2023-01-10T00:23:10.977Z,99075.97
2023-01-10T00:24:23.489Z,99072.53
2023-01-10T00:25:26.024Z,99081.31
2023-01-10T00:26:28.130Z,99078.69
2023-01-10T00:27:31.600Z,99077.34
2023-01-10T00:28:34.746Z,99088.34
2023-01-10T00:29:37.243Z,99076.81
2023-01-10T00:30:39.695Z,99081.91
2023-01-10T00:31:41.994Z,99082.13
2023-01-10T00:32:45.013Z,99089.25
2023-01-10T00:33:47.236Z,99086.91
2023-01-10T00:34:49.566Z,99084.22
2023-01-10T00:35:52.064Z,99091.78
2023-01-10T00:36:54.211Z,99091.03
2023-01-10T00:38:01.350Z,99090.09
2023-01-10T00:39:04.337Z,99093.56
2023-01-10T00:40:11.092Z,99097.88
2023-01-10T00:41:31.881Z,99097.03
2023-01-10T00:42:53.400Z,99105.06
2023-01-10T00:43:58.774Z,99101.72
2023-01-10T00:45:01.063Z,99103.56
2023-01-10T00:46:03.568Z,99109.25
2023-01-10T00:47:05.838Z,99119.66
2023-01-10T00:48:08.048Z,99127.41
2023-01-10T00:49:12.106Z,99123.94
2023-01-10T00:50:14.696Z,99129.50
2023-01-10T00:51:16.947Z,99127.38
2023-01-10T00:52:19.212Z,99128.22
2023-01-10T00:53:21.913Z,99130.13
2023-01-10T00:54:24.209Z,99141.66
2023-01-10T00:55:26.717Z,99141.47
2023-01-10T00:56:29.113Z,99139.63
2023-01-10T00:57:31.534Z,99142.81
2023-01-10T00:58:33.996Z,99143.28
2023-01-10T00:59:36.271Z,99150.91
2023-01-10T01:00:38.896Z,99154.41
2023-01-10T01:01:41.419Z,99152.78
2023-01-10T01:02:43.996Z,99156.59
2023-01-10T01:03:46.432Z,99153.03
2023-01-10T01:04:48.651Z,99150.56
2023-01-10T01:05:50.960Z,99159.13
2023-01-10T01:06:53.112Z,99170.44
2023-01-10T01:07:55.718Z,99169.63
2023-01-10T01:08:57.938Z,99178.13
2023-01-10T01:10:18.712Z,99176.06
2023-01-10T01:11:20.962Z,99185.81
2023-01-10T01:12:23.143Z,99189.19
2023-01-10T01:13:25.624Z,99181.72
2023-01-10T01:14:27.895Z,99194.28
2023-01-10T01:15:30.324Z,99199.03
2023-01-10T01:16:32.603Z,99204.09
2023-01-10T01:17:34.868Z,99204.59
2023-01-10T01:18:37.239Z,99210.28
2023-01-10T01:19:39.620Z,99212.72
2023-01-10T01:20:42.590Z,99215.41
2023-01-10T01:21:44.863Z,99221.25
2023-01-10T01:22:47.856Z,99218.34
2023-01-10T01:23:51.045Z,99223.88
2023-01-10T01:24:53.240Z,99236.56
2023-01-10T01:25:56.988Z,99230.97
2023-01-10T01:26:59.349Z,99237.47
2023-01-10T01:28:01.851Z,99238.47
2023-01-10T01:29:04.056Z,99245.50
2023-01-10T01:30:07.527Z,99252.72
2023-01-10T01:31:10.194Z,99256.63
2023-01-10T01:32:12.465Z,99254.03
2023-01-10T01:33:14.900Z,99264.25
2023-01-10T01:34:17.275Z,99264.19
2023-01-10T01:35:19.610Z,99263.28
2023-01-10T01:36:21.839Z,99267.53
2023-01-10T01:37:24.097Z,99277.03
2023-01-10T01:38:26.392Z,99280.72
2023-01-10T01:39:28.545Z,99288.00
2023-01-10T01:40:30.832Z,99290.00
2023-01-10T01:41:51.660Z,99294.31
2023-01-10T01:42:55.888Z,99294.13
2023-01-10T01:44:32.602Z,99306.31
2023-01-10T01:45:38.256Z,99307.19
2023-01-10T01:46:41.986Z,99306.50
2023-01-10T01:47:53.948Z,99306.06
2023-01-10T01:48:56.259Z,99309.97
2023-01-10T01:49:58.450Z,99314.16
2023-01-10T01:51:07.572Z,99321.00
2023-01-10T01:52:21.584Z,99325.56
2023-01-10T01:53:31.317Z,99330.25
2023-01-10T01:54:34.517Z,99325.47
2023-01-10T01:55:38.609Z,99334.88
2023-01-10T01:56:55.754Z,99340.16
2023-01-10T01:58:03.522Z,99337.44
2023-01-10T01:59:13.075Z,99336.91
2023-01-10T02:02:46.022Z,99350.81
2023-01-10T02:04:03.040Z,99351.88
2023-01-10T02:05:14.835Z,99354.53
2023-01-10T02:06:19.965Z,99357.75
2023-01-10T02:07:24.108Z,99361.25
2023-01-10T02:08:26.618Z,99368.00
2023-01-10T02:09:50.367Z,99367.78
2023-01-10T02:11:06.212Z,99370.47
2023-01-10T02:12:09.890Z,99369.66
2023-01-10T02:13:15.832Z,99380.91
2023-01-10T02:14:20.412Z,99378.63
2023-01-10T02:15:22.660Z,99385.19
2023-01-10T02:16:24.940Z,99382.34
2023-01-10T02:17:27.089Z,99378.88
2023-01-10T02:18:29.309Z,99379.91
2023-01-10T02:20:06.219Z,99382.69
2023-01-10T02:21:23.370Z,99390.72
2023-01-10T02:23:02.692Z,99389.84
2023-01-10T02:24:21.865Z,99400.16
2023-01-10T02:25:42.573Z,99396.97
2023-01-10T02:27:12.577Z,99398.69
2023-01-10T02:28:39.469Z,99401.81
2023-01-10T02:30:03.007Z,99404.53
2023-01-10T02:31:23.671Z,99402.72
2023-01-10T02:32:45.752Z,99402.28
2023-01-10T02:34:12.334Z,99416.13
2023-01-10T02:35:41.203Z,99407.78
2023-01-10T02:37:17.334Z,99409.06
2023-01-10T02:38:27.052Z,99413.72
2023-01-10T02:39:48.245Z,99412.66
2023-01-10T02:41:08.976Z,99413.03
2023-01-10T02:42:21.369Z,99407.66
2023-01-10T02:43:32.227Z,99417.78
2023-01-10T02:44:45.883Z,99419.28
2023-01-10T02:45:55.063Z,99421.00
2023-01-10T02:46:57.539Z,99417.53
2023-01-10T02:47:59.827Z,99422.81
2023-01-10T02:49:02.070Z,99419.47
2023-01-10T02:50:22.780Z,99433.97
2023-01-10T02:51:29.931Z,99425.63
2023-01-10T02:52:32.428Z,99417.88
2023-01-10T02:53:39.642Z,99429.22
2023-01-10T02:54:42.208Z,99431.97
2023-01-10T02:56:12.882Z,99436.09
2023-01-10T02:57:43.315Z,99439.59
2023-01-10T02:59:18.211Z,99450.81
2023-01-10T03:00:29.425Z,99454.44
2023-01-10T03:01:52.181Z,99453.78
2023-01-10T03:03:16.833Z,99457.13
2023-01-10T03:04:32.504Z,99450.09
2023-01-10T03:05:59.571Z,99462.31
2023-01-10T03:07:16.145Z,99459.72
2023-01-10T03:08:32.257Z,99457.97
2023-01-10T03:09:39.583Z,99464.13
2023-01-10T03:10:52.625Z,99465.13
2023-01-10T03:12:03.788Z,99466.41
2023-01-10T03:13:12.637Z,99465.59
2023-01-10T03:14:20.789Z,99460.44
2023-01-10T03:15:27.688Z,99460.09
2023-01-10T03:16:33.400Z,99460.06
2023-01-10T03:17:37.042Z,99465.56
2023-01-10T03:18:45.820Z,99464.94
2023-01-10T03:19:52.262Z,99462.31
2023-01-10T03:20:56.998Z,99465.63
2023-01-10T03:22:02.414Z,99471.09
2023-01-10T03:23:06.850Z,99463.38
2023-01-10T03:24:20.559Z,99471.16
2023-01-10T03:25:28.230Z,99470.69
2023-01-10T03:26:58.574Z,99474.44
2023-01-10T03:28:11.225Z,99476.28
2023-01-10T03:29:19.426Z,99475.50
2023-01-10T03:30:30.453Z,99480.16
2023-01-10T03:31:42.141Z,99483.88
2023-01-10T03:32:44.388Z,99477.00
2023-01-10T03:33:47.643Z,99474.31
2023-01-10T03:34:50.143Z,99487.38
2023-01-10T03:36:10.343Z,99487.91
2023-01-10T03:37:25.645Z,99489.78
2023-01-10T03:39:00.864Z,99489.19
2023-01-10T03:40:05.906Z,99482.16
2023-01-10T03:41:33.967Z,99489.22
2023-01-10T03:43:16.564Z,99489.72
2023-01-10T03:44:43.762Z,99490.56
2023-01-10T03:46:09.630Z,99500.25
2023-01-10T03:47:41.187Z,99513.31
2023-01-10T03:48:45.926Z,99508.38
2023-01-10T03:50:02.732Z,99505.06
2023-01-10T03:51:06.390Z,99511.91
2023-01-10T03:52:13.725Z,99509.81
2023-01-10T03:53:16.575Z,99516.69
2023-01-10T03:54:18.792Z,99516.53
2023-01-10T03:55:25.777Z,99517.66
2023-01-10T03:56:28.022Z,99525.66
2023-01-10T03:57:30.356Z,99519.63
2023-01-10T03:58:32.681Z,99524.91
2023-01-10T03:59:35.064Z,99521.63
2023-01-10T04:00:37.324Z,99532.69
2023-01-10T04:01:39.655Z,99530.25
2023-01-10T04:02:42.419Z,99535.25
2023-01-10T04:03:44.829Z,99527.31
2023-01-10T04:04:47.051Z,99536.22
2023-01-10T04:05:49.372Z,99537.75
2023-01-10T04:06:51.545Z,99537.00
2023-01-10T04:07:53.840Z,99542.94
2023-01-10T04:08:56.282Z,99535.16
2023-01-10T04:09:58.485Z,99543.88
2023-01-10T04:11:00.657Z,99540.91
2023-01-10T04:12:03.253Z,99551.22
2023-01-10T04:13:05.722Z,99549.91
2023-01-10T04:14:08.013Z,99548.69
2023-01-10T04:15:10.606Z,99558.34
2023-01-10T04:16:12.855Z,99566.31
2023-01-10T04:17:16.765Z,99563.88
2023-01-10T04:18:19.224Z,99566.41
2023-01-10T04:19:21.839Z,99572.28
2023-01-10T04:20:27.837Z,99566.91
2023-01-10T04:21:30.049Z,99570.38
2023-01-10T04:22:32.294Z,99575.00
2023-01-10T04:23:34.532Z,99569.63
2023-01-10T04:24:37.162Z,99569.78
2023-01-10T04:25:39.449Z,99569.06
2023-01-10T04:26:41.659Z,99582.78
2023-01-10T04:27:43.854Z,99573.34
2023-01-10T04:28:46.089Z,99589.88
2023-01-10T04:29:48.326Z,99593.31
2023-01-10T04:30:50.848Z,99583.75
2023-01-10T04:31:53.528Z,99584.44
2023-01-10T04:32:55.889Z,99590.75
2023-01-10T04:33:58.182Z,99596.84
2023-01-10T04:35:00.435Z,99581.22
2023-01-10T04:36:02.687Z,99597.63
2023-01-10T04:37:05.398Z,99595.13
2023-01-10T04:38:07.609Z,99600.25
2023-01-10T04:39:09.788Z,99599.31
2023-01-10T04:40:13.082Z,99595.75
2023-01-10T04:41:15.382Z,99602.63
2023-01-10T04:42:17.957Z,99602.38
2023-01-10T04:43:20.196Z,99605.97
2023-01-10T04:44:22.542Z,99600.84
2023-01-10T04:45:24.844Z,99602.47
2023-01-10T04:46:27.096Z,99602.56
2023-01-10T04:47:29.331Z,99610.28
2023-01-10T04:48:31.517Z,99610.97
2023-01-10T04:49:33.677Z,99605.66
2023-01-10T04:50:35.967Z,99610.03
2023-01-10T04:51:38.453Z,99612.53
2023-01-10T04:52:41.890Z,99617.16
2023-01-10T04:53:44.119Z,99617.13
2023-01-10T04:54:46.331Z,99623.13
2023-01-10T04:55:49.010Z,99621.34
2023-01-10T04:56:51.209Z,99615.38
2023-01-10T04:57:53.446Z,99618.81
2023-01-10T04:58:56.406Z,99629.28
2023-01-10T04:59:58.664Z,99632.53
2023-01-10T05:01:06.582Z,99626.63
2023-01-10T05:02:08.945Z,99643.03
2023-01-10T05:03:11.363Z,99647.47
2023-01-10T05:04:13.941Z,99651.09
2023-01-10T05:05:16.259Z,99649.31
2023-01-10T05:06:19.634Z,99651.91
2023-01-10T05:07:21.926Z,99647.31
2023-01-10T05:08:24.153Z,99654.44
2023-01-10T05:09:26.338Z,99652.66
2023-01-10T05:10:28.582Z,99658.78
2023-01-10T05:11:30.801Z,99657.91
2023-01-10T05:12:33.095Z,99660.56
2023-01-10T05:13:35.322Z,99664.84
2023-01-10T05:14:37.531Z,99663.06
2023-01-10T05:15:39.753Z,99668.97
2023-01-10T05:16:42.085Z,99666.44
2023-01-10T05:17:44.312Z,99672.41
2023-01-10T05:18:46.635Z,99669.91
2023-01-10T05:19:48.789Z,99671.59
2023-01-10T05:20:51.288Z,99670.78
2023-01-10T05:21:53.572Z,99677.78
2023-01-10T05:22:55.914Z,99682.97
2023-01-10T05:23:58.140Z,99689.88
2023-01-10T05:25:00.385Z,99685.50
2023-01-10T05:26:13.528Z,99687.13
2023-01-10T05:27:16.199Z,99681.88
2023-01-10T05:28:18.364Z,99688.78
2023-01-10T05:29:20.590Z,99691.38
2023-01-10T05:30:22.898Z,99690.19
2023-01-10T05:31:25.211Z,99690.47
2023-01-10T05:32:30.173Z,99683.72
2023-01-10T05:33:32.365Z,99701.00
2023-01-10T05:34:35.172Z,99698.25
2023-01-10T05:35:37.517Z,99691.53
2023-01-10T05:36:40.023Z,99689.75
2023-01-10T05:37:42.299Z,99701.91
2023-01-10T05:38:44.622Z,99688.00
2023-01-10T05:39:47.051Z,99708.03
2023-01-10T05:40:55.957Z,99704.53
2023-01-10T05:41:58.257Z,99711.59
2023-01-10T05:43:00.475Z,99708.94
2023-01-10T05:44:02.788Z,99715.94
2023-01-10T05:45:05.647Z,99714.03
2023-01-10T05:46:08.057Z,99718.34
2023-01-10T05:47:10.283Z,99713.34
2023-01-10T05:48:12.578Z,99708.03
2023-01-10T05:49:14.838Z,99708.84
2023-01-10T05:50:18.951Z,99719.25
2023-01-10T05:51:21.401Z,99712.41
2023-01-10T05:52:23.592Z,99721.94
2023-01-10T05:53:25.988Z,99717.53
2023-01-10T05:54:29.693Z,99720.13
2023-01-10T05:55:32.445Z,99723.53
2023-01-10T05:56:34.684Z,99730.56
2023-01-10T05:57:36.956Z,99713.28
2023-01-10T05:58:39.126Z,99719.38
2023-01-10T05:59:41.427Z,99721.09
2023-01-10T06:00:43.744Z,99723.66
2023-01-10T06:01:45.991Z,99725.38
2023-01-10T06:02:48.256Z,99726.16
2023-01-10T06:03:50.498Z,99726.09
2023-01-10T06:04:55.094Z,99733.09
2023-01-10T06:05:57.467Z,99723.53
2023-01-10T06:06:59.657Z,99738.31
2023-01-10T06:08:01.916Z,99743.53
2023-01-10T06:09:04.131Z,99751.31
2023-01-10T06:10:06.659Z,99748.72
2023-01-10T06:11:08.903Z,99748.75
2023-01-10T06:12:11.075Z,99753.03
2023-01-10T06:13:13.415Z,99753.78
2023-01-10T06:14:19.348Z,99754.72
2023-01-10T06:15:21.709Z,99765.25
2023-01-10T06:16:24.494Z,99769.41
2023-01-10T06:17:26.908Z,99772.03
2023-01-10T06:18:29.091Z,99772.13
2023-01-10T06:19:31.332Z,99785.97
2023-01-10T06:20:33.629Z,99783.34
2023-01-10T06:21:35.880Z,99789.53
2023-01-10T06:22:41.333Z,99792.06
2023-01-10T06:23:43.577Z,99786.03
2023-01-10T06:24:46.062Z,99784.31
2023-01-10T06:25:48.324Z,99783.44
2023-01-10T06:26:50.494Z,99793.75
2023-01-10T06:27:52.731Z,99794.66
2023-01-10T06:28:55.125Z,99786.06
2023-01-10T06:29:59.170Z,99783.31
2023-01-10T06:31:01.407Z,99784.06
2023-01-10T06:32:03.743Z,99791.97
2023-01-10T06:33:07.711Z,99791.97
2023-01-10T06:34:09.916Z,99789.41
2023-01-10T06:35:12.193Z,99791.13
2023-01-10T06:36:14.388Z,99795.56
2023-01-10T06:37:18.723Z,99802.47
2023-01-10T06:38:22.271Z,99805.03
2023-01-10T06:39:24.450Z,99798.13
2023-01-10T06:40:27.618Z,99800.75
2023-01-10T06:41:29.874Z,99792.06
2023-01-10T06:42:32.317Z,99786.81
2023-01-10T06:43:34.530Z,99798.03
2023-01-10T06:44:36.849Z,99790.22
2023-01-10T06:45:39.096Z,99801.50
2023-01-10T06:46:41.553Z,99802.38
2023-01-10T06:47:43.747Z,99808.47
2023-01-10T06:48:47.413Z,99813.75
2023-01-10T06:49:49.571Z,99806.63
2023-01-10T06:50:51.758Z,99811.00
2023-01-10T06:51:54.068Z,99809.31
2023-01-10T06:53:01.704Z,99813.63
2023-01-10T06:54:04.154Z,99826.75
2023-01-10T06:55:07.236Z,99820.66
2023-01-10T06:56:10.111Z,99822.31
2023-01-10T06:57:12.261Z,99831.84
2023-01-10T06:58:18.279Z,99830.25
2023-01-10T06:59:20.589Z,99841.44
2023-01-10T07:00:23.446Z,99843.06
2023-01-10T07:01:25.897Z,99840.41
2023-01-10T07:02:28.339Z,99847.31
2023-01-10T07:03:30.591Z,99857.78
2023-01-10T07:04:32.927Z,99862.94
2023-01-10T07:05:35.231Z,99870.81
2023-01-10T07:06:39.252Z,99857.88
2023-01-10T07:07:41.488Z,99854.44
2023-01-10T07:08:45.723Z,99859.56
2023-01-10T07:09:47.944Z,99859.59
2023-01-10T07:10:50.212Z,99859.63
2023-01-10T07:11:52.456Z,99852.56
2023-01-10T07:12:55.709Z,99836.13
2023-01-10T07:13:57.894Z,99843.84
2023-01-10T07:15:00.090Z,99836.16
2023-01-10T07:16:07.213Z,99828.34
2023-01-10T07:17:09.431Z,99829.94
2023-01-10T07:18:12.837Z,99827.47
2023-01-10T07:19:17.474Z,99830.03
2023-01-10T07:20:19.902Z,99835.25
2023-01-10T07:21:22.242Z,99848.31
2023-01-10T07:22:24.516Z,99851.63
2023-01-10T07:23:26.766Z,99846.38
2023-01-10T07:24:28.966Z,99848.13
2023-01-10T07:25:31.253Z,99851.59
2023-01-10T07:26:33.528Z,99861.06
2023-01-10T07:27:35.946Z,99862.81
2023-01-10T07:28:38.158Z,99866.19
2023-01-10T07:29:40.994Z,99869.59
2023-01-10T07:30:43.348Z,99875.75
2023-01-10T07:31:45.804Z,99872.13
2023-01-10T07:32:54.025Z,99870.59
2023-01-10T07:33:56.243Z,99880.09
2023-01-10T07:34:58.552Z,99879.22
2023-01-10T07:36:01.701Z,99874.06
2023-01-10T07:37:04.017Z,99877.53
2023-01-10T07:38:06.760Z,99880.28
2023-01-10T07:39:09.062Z,99880.44
2023-01-10T07:40:11.778Z,99891.59
2023-01-10T07:41:14.064Z,99895.94
2023-01-10T07:42:16.340Z,99903.69
2023-01-10T07:43:18.630Z,99902.97
2023-01-10T07:44:20.870Z,99905.56
2023-01-10T07:45:23.296Z,99901.34
2023-01-10T07:46:26.566Z,99909.75
2023-01-10T07:47:28.848Z,99920.06
2023-01-10T07:48:31.142Z,99907.84
2023-01-10T07:49:33.353Z,99912.22
2023-01-10T07:50:36.710Z,99899.09
2023-01-10T07:51:39.011Z,99903.38
2023-01-10T07:52:41.383Z,99911.28
2023-01-10T07:53:43.804Z,99907.06
2023-01-10T07:54:46.121Z,99913.16
2023-01-10T07:55:48.570Z,99913.28
2023-01-10T07:56:50.747Z,99901.22
2023-01-10T07:57:53.085Z,99911.63
2023-01-10T07:58:55.407Z,99905.34
2023-01-10T07:59:57.627Z,99907.16
2023-01-10T08:01:04.766Z,99902.88
2023-01-10T08:02:10.057Z,99903.66
2023-01-10T08:03:13.144Z,99923.56
2023-01-10T08:04:15.487Z,99921.91
2023-01-10T08:05:17.784Z,99922.75
2023-01-10T08:06:20.078Z,99925.22
2023-01-10T08:07:22.266Z,99930.31
2023-01-10T08:08:24.485Z,99936.28
2023-01-10T08:09:27.048Z,99933.06
2023-01-10T08:10:29.432Z,99951.16
2023-01-10T08:11:31.734Z,99941.72
2023-01-10T08:12:33.959Z,99945.19
2023-01-10T08:13:36.275Z,99951.19
2023-01-10T08:14:38.476Z,99939.09
2023-01-10T08:15:40.836Z,99953.00
2023-01-10T08:16:43.142Z,99950.38
2023-01-10T08:17:45.343Z,99946.97
2023-01-10T08:18:48.172Z,99959.78
2023-01-10T08:19:50.481Z,99958.16
2023-01-10T08:20:54.276Z,99956.34
2023-01-10T08:21:56.609Z,99964.94
2023-01-10T08:22:59.520Z,99952.69
2023-01-10T08:24:01.764Z,99960.41
2023-01-10T08:25:04.301Z,99960.41
2023-01-10T08:26:06.766Z,99955.22
2023-01-10T08:27:09.081Z,99957.03
2023-01-10T08:28:11.558Z,99963.13
2023-01-10T08:29:13.791Z,99955.44
2023-01-10T08:30:16.166Z,99962.34
2023-01-10T08:31:18.433Z,99951.06
2023-01-10T08:32:20.751Z,99954.50
2023-01-10T08:33:24.036Z,99950.94
2023-01-10T08:34:26.312Z,99959.47
2023-01-10T08:35:28.506Z,99965.69
2023-01-10T08:36:30.732Z,99963.88
2023-01-10T08:37:33.451Z,99970.81
2023-01-10T08:38:35.679Z,99976.00
2023-01-10T08:39:39.227Z,99978.63
2023-01-10T08:40:41.610Z,99982.97
2023-01-10T08:41:43.965Z,99987.44
2023-01-10T08:42:46.644Z,99983.97
2023-01-10T08:43:50.450Z,99985.59
2023-01-10T08:44:53.013Z,99982.19
2023-01-10T08:45:55.241Z,99973.44
2023-01-10T08:46:57.552Z,99981.25
2023-01-10T08:47:59.969Z,99979.53
2023-01-10T08:49:02.166Z,99974.34
2023-01-10T08:50:05.929Z,99981.25
2023-01-10T08:51:10.032Z,99979.66
2023-01-10T08:52:12.528Z,99986.53
2023-01-10T08:53:14.860Z,99985.66
2023-01-10T08:54:17.159Z,99982.09
2023-01-10T08:55:19.786Z,99982.09
2023-01-10T08:56:21.946Z,99986.25
2023-01-10T08:57:24.224Z,99983.59
2023-01-10T08:58:26.531Z,99973.25
2023-01-10T08:59:28.844Z,99984.34
2023-01-10T09:00:31.155Z,99981.84
2023-01-10T09:01:33.786Z,99990.63
2023-01-10T09:02:36.089Z,99983.50
2023-01-10T09:03:39.885Z,99983.50
2023-01-10T09:04:42.110Z,99988.03
2023-01-10T09:05:44.475Z,99984.63
2023-01-10T09:06:46.707Z,99988.72
2023-01-10T09:07:49.151Z,99980.00
2023-01-10T09:08:51.743Z,99985.84
2023-01-10T09:09:54.092Z,99980.34
2023-01-10T09:11:00.199Z,99982.91
2023-01-10T09:12:22.389Z,99988.50
2023-01-10T09:13:25.143Z,99982.91
2023-01-10T09:14:27.298Z,99982.94
2023-01-10T09:15:32.959Z,99980.13
2023-01-10T09:16:35.196Z,99982.91
2023-01-10T09:17:37.407Z,99981.03
2023-01-10T09:18:39.625Z,99983.47
2023-01-10T09:19:41.805Z,99981.06
2023-01-10T09:20:45.447Z,99977.06
2023-01-10T09:21:47.709Z,99981.53
2023-01-10T09:22:50.033Z,99982.28
2023-01-10T09:23:52.280Z,99973.44
2023-01-10T09:24:55.574Z,99980.34
2023-01-10T09:25:59.830Z,99975.94
2023-01-10T09:27:02.122Z,99991.69
2023-01-10T09:28:05.146Z,99973.69
2023-01-10T09:29:07.650Z,99979.78
2023-01-10T09:30:11.082Z,99980.81
2023-01-10T09:31:13.313Z,99978.19
2023-01-10T09:32:15.632Z,99989.53
2023-01-10T09:33:18.290Z,99984.72
2023-01-10T09:34:20.560Z,99998.31
2023-01-10T09:35:24.008Z,100003.47
2023-01-10T09:36:26.209Z,100009.91
2023-01-10T09:37:29.240Z,100006.44
2023-01-10T09:38:31.452Z,100007.63
2023-01-10T09:39:34.204Z,100010.41
2023-01-10T09:40:55.034Z,100003.44
2023-01-10T09:42:10.040Z,100003.66
2023-01-10T09:43:40.163Z,100016.66
2023-01-10T09:44:49.537Z,100017.06
2023-01-10T09:46:19.243Z,100019.06
2023-01-10T09:47:54.126Z,100016.22
2023-01-10T09:49:00.903Z,100018.38
2023-01-10T09:50:12.303Z,100020.03
2023-01-10T09:51:36.575Z,100024.06
2023-01-10T09:52:50.876Z,100025.31
2023-01-10T09:54:10.084Z,100029.78
2023-01-10T09:55:39.771Z,100043.69
2023-01-10T09:56:42.582Z,100043.03
2023-01-10T09:57:45.568Z,100038.66
2023-01-10T09:58:50.176Z,100042.59
2023-01-10T09:59:54.394Z,100031.84
2023-01-10T10:01:14.582Z,100043.81
2023-01-10T10:02:28.746Z,100039.53
2023-01-10T10:03:54.328Z,100040.56
2023-01-10T10:05:13.203Z,100037.81
2023-01-10T10:06:15.656Z,100029.59
2023-01-10T10:07:17.938Z,100040.66
2023-01-10T10:08:20.796Z,100035.66
2023-01-10T10:09:30.010Z,100047.78
2023-01-10T10:10:39.739Z,100051.34
2023-01-10T10:11:46.558Z,100046.81
2023-01-10T10:13:08.040Z,100040.91
2023-01-10T10:14:45.415Z,100035.66
2023-01-10T10:16:02.852Z,100039.91
2023-01-10T10:17:33.658Z,100033.91
2023-01-10T10:18:50.235Z,100035.91
2023-01-10T10:20:10.894Z,100030.91
2023-01-10T10:21:28.479Z,100031.94
2023-01-10T10:23:12.080Z,100039.16
2023-01-10T10:24:32.001Z,100043.91
2023-01-10T10:26:18.381Z,100043.97
2023-01-10T10:27:32.823Z,100029.91
2023-01-10T10:28:54.077Z,100034.84
2023-01-10T10:30:15.551Z,100035.41
2023-01-10T10:31:46.486Z,100037.09
2023-01-10T10:33:19.634Z,100051.22
2023-01-10T10:34:27.934Z,100046.41
2023-01-10T10:35:37.197Z,100042.13
2023-01-10T10:37:11.545Z,100045.88
2023-01-10T10:38:29.703Z,100041.97
2023-01-10T10:39:37.361Z,100037.34
2023-01-10T10:40:43.951Z,100043.72
2023-01-10T10:41:52.391Z,100046.56
2023-01-10T10:42:57.009Z,100049.06
2023-01-10T10:44:04.854Z,100053.16
2023-01-10T10:45:18.109Z,100051.09
2023-01-10T10:46:22.115Z,100049.31
2023-01-10T10:47:27.626Z,100053.88
2023-01-10T10:48:33.923Z,100064.34
2023-01-10T10:49:56.861Z,100048.69
2023-01-10T10:51:03.424Z,100052.25
2023-01-10T10:52:17.390Z,100054.66
2023-01-10T10:53:19.706Z,100047.94
2023-01-10T10:54:23.087Z,100047.91
2023-01-10T10:55:31.457Z,100052.22
2023-01-10T10:56:33.643Z,100047.53
2023-01-10T10:57:39.976Z,100054.50
2023-01-10T10:58:51.412Z,100053.28
2023-01-10T10:59:54.049Z,100053.47
2023-01-10T11:00:57.591Z,100059.50
2023-01-10T11:02:00.745Z,100056.91
2023-01-10T11:03:25.662Z,100058.59
2023-01-10T11:04:29.208Z,100052.63
2023-01-10T11:05:41.629Z,100067.41
2023-01-10T11:06:48.883Z,100063.16
2023-01-10T11:07:54.348Z,100065.84
2023-01-10T11:09:01.300Z,100058.38
2023-01-10T11:10:33.528Z,100066.44
2023-01-10T11:11:43.901Z,100065.66
2023-01-10T11:12:50.992Z,100072.28
2023-01-10T11:14:01.703Z,100064.00
2023-01-10T11:15:04.403Z,100057.97
2023-01-10T11:16:08.034Z,100057.97
2023-01-10T11:17:28.444Z,100063.78
2023-01-10T11:18:31.819Z,100055.84
2023-01-10T11:19:34.216Z,100060.28
2023-01-10T11:20:36.949Z,100051.91
2023-01-10T11:21:41.062Z,100055.00
2023-01-10T11:22:49.663Z,100046.00
2023-01-10T11:23:56.812Z,100046.22
2023-01-10T11:25:02.816Z,100043.91
2023-01-10T11:26:08.445Z,100051.28
2023-01-10T11:27:16.807Z,100043.44
2023-01-10T11:28:26.017Z,100043.47
2023-01-10T11:29:40.451Z,100043.78
2023-01-10T11:30:48.499Z,100029.53
2023-01-10T11:31:53.059Z,100040.75
2023-01-10T11:33:04.369Z,100032.59
2023-01-10T11:34:19.571Z,100025.13
2023-01-10T11:35:35.378Z,100034.63
2023-01-10T11:36:57.442Z,100033.09
2023-01-10T11:38:02.777Z,100035.41
2023-01-10T11:39:05.017Z,100031.66
2023-01-10T11:40:23.909Z,100026.94
2023-01-10T11:41:31.548Z,100029.75
2023-01-10T11:42:34.078Z,100028.03
2023-01-10T11:43:41.499Z,100028.38
2023-01-10T11:44:43.745Z,100030.75
2023-01-10T11:45:54.688Z,100023.44
2023-01-10T11:47:04.349Z,100031.66
2023-01-10T11:48:09.761Z,100024.84
2023-01-10T11:49:19.785Z,100025.97
2023-01-10T11:50:28.489Z,100029.38
2023-01-10T11:51:36.524Z,100025.84
2023-01-10T11:52:44.869Z,100031.72
2023-01-10T11:53:51.001Z,100037.41
2023-01-10T11:54:58.317Z,100041.31
2023-01-10T11:56:02.220Z,100047.31
2023-01-10T11:57:19.543Z,100045.53
2023-01-10T11:58:22.062Z,100044.97
2023-01-10T11:59:26.061Z,100048.50
2023-01-10T12:00:40.528Z,100043.00
2023-01-10T12:01:47.584Z,100047.28
2023-01-10T12:02:52.438Z,100043.50
2023-01-10T12:03:55.157Z,100042.72
2023-01-10T12:05:01.695Z,100036.84
2023-01-10T12:06:15.788Z,100042.00
2023-01-10T12:07:19.039Z,100031.75
2023-01-10T12:08:25.598Z,100031.50
2023-01-10T12:09:39.577Z,100034.63
2023-01-10T12:10:41.758Z,100023.34
2023-01-10T12:11:44.095Z,100042.06
2023-01-10T12:13:00.522Z,100034.38
2023-01-10T12:14:02.831Z,100023.72
2023-01-10T12:15:28.768Z,100026.16
2023-01-10T12:16:33.812Z,100029.16
2023-01-10T12:17:37.716Z,100029.13
2023-01-10T12:18:39.945Z,100025.47
2023-01-10T12:19:42.163Z,100022.72
2023-01-10T12:20:50.828Z,100019.25
2023-01-10T12:21:54.128Z,100020.81
2023-01-10T12:23:00.476Z,100020.63
2023-01-10T12:24:12.590Z,100012.16
2023-01-10T12:25:22.258Z,100017.94
2023-01-10T12:26:27.453Z,100013.19
2023-01-10T12:27:30.359Z,100008.28
2023-01-10T12:28:35.627Z,100001.00
2023-01-10T12:29:44.112Z,100010.66
2023-01-10T12:30:52.786Z,100008.16
2023-01-10T12:31:56.959Z,100008.19
2023-01-10T12:33:02.928Z,99992.91
2023-01-10T12:34:15.282Z,100009.31
2023-01-10T12:35:26.491Z,100011.06
2023-01-10T12:36:42.528Z,100013.72
2023-01-10T12:38:07.705Z,100004.81
2023-01-10T12:39:21.533Z,100002.38
2023-01-10T12:40:37.410Z,100008.50
2023-01-10T12:42:01.265Z,100002.56
2023-01-10T12:43:39.323Z,100006.25
2023-01-10T12:44:44.206Z,100004.25
2023-01-10T12:45:53.203Z,100006.44
2023-01-10T12:47:16.540Z,100003.94
2023-01-10T12:48:33.852Z,99993.31
2023-01-10T12:49:44.704Z,100003.22
2023-01-10T12:50:54.170Z,99996.78
2023-01-10T12:52:03.838Z,99999.03
2023-01-10T12:53:17.779Z,100004.94
2023-01-10T12:54:24.964Z,99998.41
2023-01-10T12:55:31.037Z,99994.53
2023-01-10T12:56:33.426Z,99996.94
2023-01-10T12:57:39.204Z,99988.03
2023-01-10T12:58:53.274Z,99985.47
2023-01-10T13:00:01.353Z,99991.63